CPY5 weather

Wilson's Heliport
Toronto, Ontario, Canada

Public forecast

Using degrees Celsius for public forecast. Weather courtesy of forecast.io.

METAR (pilot weather report)

Closest report is Lester B. Pearson International Airport, 4.6 nm (8.5 km) NW. Retrieved 2019/01/23 18:10 UTC (11 seconds ago):

CYYZ 231810Z 16007KT 1/2SM R24L/4500VP6000FT/N R23/P6000FT/N -RA FG VV002 02/02 A2969 RMK FG8 PRESFR SLP062

TAF (pilot weather forecast)

Closest forecast is Lester B. Pearson International Airport, 4.6 nm (8.5 km) NW. Retrieved 2019/01/23 18:48 UTC (0 seconds ago):

TAF TAF CYYZ 231745Z 2318/2424 15006KT 11/4SM -RA BR OVC005 TEMPO 2318/2320 3SM -RA BR OVC010 PROB30 2318/2320 OVC003 FM232000 18010G20KT 2SM -RA BR OVC006 TEMPO 2320/2322 6SM -RA BR OVC010 FM232200 21015G25KT 3SM -RA BR OVC008 TEMPO 2322/2324 P6SM -RA OVC012 FM240000 21018G30KT 5SM -RA BR BKN009 OVC020 TEMPO 2400/2401 P6SM NSW OVC025 FM240100 23020G35KT P6SM BKN020 OVC100 TEMPO 2401/2403 FEW020 OVC100 FM240300 25015G30KT P6SM FEW020 SCT100 OVC180 FM240500 26012G22KT P6SM -RA BKN020 OVC050 PROB30 2407/2409 5SM -SNPL -FZRA BR FM240900 29012KT 21/2SM -SN BKN020 OVC050 FM241400 32013G23KT P6SM BKN025 BECMG 2415/2417 31015G25KT FM242300 29012G22KT 6SM -SHSN BKN020 RMK NXT FCST BY 232100Z